Time;durP1;ratioP1;P1;durP2;ratioP2;P2;SDS_P1;SDS_P2;PMS_P1;PMS_P2;Temp;Humidity;BMP_temperature;BMP_pressure;BME280_temperature;BME280_humidity;BME280_pressure;Samples;Min_cycle;Max_cycle;Signal;HPM_P1;HPM_P2
2023/06/18 00:01:45;;;;;;;9.57;6.60;;;;;;;;;;5068114;28;41400;-43
2023/06/18 00:04:13;;;;;;;7.80;6.00;;;;;;;;;;5068377;28;42145;-43
2023/06/18 00:06:41;;;;;;;8.18;6.18;;;;;;;;;;5068712;28;45211;-43
2023/06/18 00:09:09;;;;;;;7.00;6.30;;;;;;;;;;5068876;28;40201;-43
2023/06/18 00:11:37;;;;;;;7.57;6.43;;;;;;;;;;5067696;28;43619;-43
2023/06/18 00:14:05;;;;;;;9.07;6.25;;;;;;;;;;5068674;28;43217;-43
2023/06/18 00:16:34;;;;;;;6.70;6.10;;;;;;;;;;5068097;28;39930;-43
2023/06/18 00:19:02;;;;;;;7.72;6.15;;;;;;;;;;5067785;28;43331;-43
2023/06/18 00:21:30;;;;;;;6.55;5.85;;;;;;;;;;5067874;28;40969;-43
2023/06/18 00:23:58;;;;;;;7.35;6.65;;;;;;;;;;5068668;28;42417;-43
2023/06/18 00:26:26;;;;;;;10.15;6.10;;;;;;;;;;5068002;28;42951;-43
2023/06/18 00:28:54;;;;;;;9.80;6.18;;;;;;;;;;5066320;28;40058;-43
2023/06/18 00:31:24;;;;;;;8.25;6.32;;;;;;;;;;5068554;28;42868;-43
2023/06/18 00:33:56;;;;;;;12.77;6.57;;;;;;;;;;5068326;28;43872;-43
2023/06/18 00:36:26;;;;;;;7.55;6.32;;;;;;;;;;5068246;28;40685;-43
2023/06/18 00:38:54;;;;;;;8.00;6.22;;;;;;;;;;5067889;28;43389;-43
2023/06/18 00:41:24;;;;;;;7.28;6.18;;;;;;;;;;5066484;28;42371;-43
2023/06/18 00:43:52;;;;;;;8.45;6.07;;;;;;;;;;5068128;28;43403;-43
2023/06/18 00:46:20;;;;;;;6.90;6.20;;;;;;;;;;5067076;28;43932;-43
2023/06/18 00:48:48;;;;;;;6.63;6.00;;;;;;;;;;5068334;28;40919;-43
2023/06/18 00:51:17;;;;;;;8.10;6.45;;;;;;;;;;5067453;28;42421;-43
2023/06/18 00:53:45;;;;;;;9.32;6.40;;;;;;;;;;5066687;28;43384;-43
2023/06/18 00:56:13;;;;;;;6.57;5.90;;;;;;;;;;5068218;28;41481;-43
2023/06/18 00:58:41;;;;;;;7.15;6.45;;;;;;;;;;5065993;28;41389;-43
2023/06/18 01:01:10;;;;;;;7.00;6.20;;;;;;;;;;5067863;28;44388;-43
2023/06/18 01:03:39;;;;;;;6.13;5.55;;;;;;;;;;5066972;28;42461;-43
2023/06/18 01:06:09;;;;;;;6.60;6.00;;;;;;;;;;5068382;28;45191;-43
2023/06/18 01:08:40;;;;;;;6.72;6.00;;;;;;;;;;5066805;28;42059;-43
2023/06/18 01:11:08;;;;;;;6.22;5.63;;;;;;;;;;5068114;28;43726;-43
2023/06/18 01:13:39;;;;;;;6.50;5.80;;;;;;;;;;5067432;28;43359;-43
2023/06/18 01:16:08;;;;;;;6.97;6.28;;;;;;;;;;5065222;28;40279;-43
2023/06/18 01:18:37;;;;;;;6.22;5.63;;;;;;;;;;5067607;28;43292;-42
2023/06/18 01:21:06;;;;;;;7.57;6.40;;;;;;;;;;5066949;28;44118;-43
2023/06/18 01:23:36;;;;;;;6.88;6.10;;;;;;;;;;5065960;28;38927;-43
2023/06/18 01:26:06;;;;;;;7.70;6.03;;;;;;;;;;5068108;28;43060;-42
2023/06/18 01:28:35;;;;;;;8.40;5.75;;;;;;;;;;5064969;28;38673;-42
2023/06/18 01:31:03;;;;;;;6.60;5.90;;;;;;;;;;5065424;28;41141;-43
2023/06/18 01:33:34;;;;;;;7.28;5.88;;;;;;;;;;5065093;28;42745;-42
2023/06/18 01:36:02;;;;;;;6.57;5.95;;;;;;;;;;5067086;28;39923;-42
2023/06/18 01:38:31;;;;;;;6.95;5.88;;;;;;;;;;5067177;28;42295;-42
2023/06/18 01:41:00;;;;;;;6.47;5.88;;;;;;;;;;5065384;28;41863;-43
2023/06/18 01:43:33;;;;;;;6.55;5.90;;;;;;;;;;5065886;28;40749;-43
2023/06/18 01:46:02;;;;;;;6.40;5.82;;;;;;;;;;5065613;28;42038;-42
2023/06/18 01:48:32;;;;;;;6.43;5.80;;;;;;;;;;5066975;28;39883;-43
2023/06/18 01:51:00;;;;;;;6.90;5.95;;;;;;;;;;5065005;28;41345;-42
2023/06/18 01:53:28;;;;;;;6.30;5.70;;;;;;;;;;5066671;28;44627;-43
2023/06/18 01:55:57;;;;;;;7.03;5.85;;;;;;;;;;5064697;28;39065;-42
2023/06/18 01:58:28;;;;;;;7.65;6.30;;;;;;;;;;5064429;28;42250;-43
2023/06/18 02:00:58;;;;;;;6.68;5.57;;;;;;;;;;5065273;28;42424;-43
2023/06/18 02:03:27;;;;;;;6.22;5.63;;;;;;;;;;5065147;28;41235;-43
2023/06/18 02:05:55;;;;;;;5.90;5.40;;;;;;;;;;5063934;28;41265;-43
2023/06/18 02:08:23;;;;;;;7.50;5.63;;;;;;;;;;5057916;28;42521;-42
2023/06/18 02:10:51;;;;;;;6.03;5.50;;;;;;;;;;5063441;28;42019;-43
2023/06/18 02:13:19;;;;;;;6.68;5.50;;;;;;;;;;5066161;28;45241;-42
2023/06/18 02:15:47;;;;;;;7.55;6.15;;;;;;;;;;5064757;28;39578;-42
2023/06/18 02:18:17;;;;;;;7.43;5.95;;;;;;;;;;5066269;28;42840;-43
2023/06/18 02:20:45;;;;;;;6.22;5.72;;;;;;;;;;5066479;28;43551;-42
2023/06/18 02:23:13;;;;;;;6.32;5.32;;;;;;;;;;5066802;28;40553;-43
2023/06/18 02:25:44;;;;;;;8.60;5.93;;;;;;;;;;5065644;28;43079;-42
2023/06/18 02:28:12;;;;;;;6.20;5.53;;;;;;;;;;5065274;28;41448;-43
2023/06/18 02:30:40;;;;;;;6.35;5.75;;;;;;;;;;5065894;28;40851;-43
2023/06/18 02:33:10;;;;;;;6.50;5.80;;;;;;;;;;5066706;28;43397;-43
2023/06/18 02:35:41;;;;;;;6.53;5.93;;;;;;;;;;5065943;28;40285;-42
2023/06/18 02:38:10;;;;;;;6.32;5.70;;;;;;;;;;5064095;28;41608;-43
2023/06/18 02:40:38;;;;;;;6.38;5.68;;;;;;;;;;5064290;28;43753;-42
2023/06/18 02:43:06;;;;;;;6.25;5.65;;;;;;;;;;5064300;28;40471;-42
2023/06/18 02:45:34;;;;;;;6.00;5.40;;;;;;;;;;5064425;28;43177;-42
2023/06/18 02:48:02;;;;;;;6.50;5.90;;;;;;;;;;5064412;28;42019;-42
2023/06/18 02:50:30;;;;;;;6.47;5.88;;;;;;;;;;5063767;28;40369;-43
2023/06/18 02:52:59;;;;;;;6.80;6.10;;;;;;;;;;5063244;28;41173;-43
2023/06/18 02:55:27;;;;;;;6.70;6.00;;;;;;;;;;5063795;28;40063;-43
2023/06/18 02:57:55;;;;;;;6.20;5.60;;;;;;;;;;5064407;28;42733;-42
2023/06/18 03:00:23;;;;;;;6.28;5.68;;;;;;;;;;5062867;28;43168;-43
2023/06/18 03:02:51;;;;;;;5.97;5.43;;;;;;;;;;5064558;28;39074;-42
2023/06/18 03:05:22;;;;;;;7.72;6.25;;;;;;;;;;5063944;28;41812;-42
2023/06/18 03:07:51;;;;;;;6.35;5.68;;;;;;;;;;5063428;28;42002;-43
2023/06/18 03:10:22;;;;;;;6.43;5.75;;;;;;;;;;5063177;28;38884;-43
2023/06/18 03:12:53;;;;;;;6.10;5.50;;;;;;;;;;5063973;28;43526;-42
2023/06/18 03:15:31;;;;;;;6.35;5.75;;;;;;;;;;5062772;28;39186;-43
2023/06/18 03:17:59;;;;;;;7.13;5.75;;;;;;;;;;5066717;28;41245;-42
2023/06/18 03:20:29;;;;;;;6.30;5.70;;;;;;;;;;5052907;28;42951;-42
2023/06/18 03:22:59;;;;;;;6.28;5.68;;;;;;;;;;5068315;28;39126;-43
2023/06/18 03:25:29;;;;;;;6.85;6.10;;;;;;;;;;5066908;28;41310;-43
2023/06/18 03:27:58;;;;;;;6.65;5.40;;;;;;;;;;5067133;28;41765;-43
2023/06/18 03:30:29;;;;;;;6.63;5.93;;;;;;;;;;5066709;28;40403;-43
2023/06/18 03:33:01;;;;;;;6.38;5.75;;;;;;;;;;5067770;28;41739;-42
2023/06/18 03:35:30;;;;;;;9.50;5.93;;;;;;;;;;5066414;28;43267;-43
2023/06/18 03:37:58;;;;;;;6.10;5.32;;;;;;;;;;5069595;28;42782;-42
2023/06/18 03:40:25;;;;;;;6.60;6.00;;;;;;;;;;5066649;28;41801;-43
2023/06/18 03:42:55;;;;;;;7.60;6.03;;;;;;;;;;5066814;28;39433;-43
2023/06/18 03:45:25;;;;;;;6.65;5.82;;;;;;;;;;5066694;28;41013;-43
2023/06/18 03:47:53;;;;;;;5.93;5.43;;;;;;;;;;5067732;28;42126;-43
2023/06/18 03:50:24;;;;;;;10.93;6.05;;;;;;;;;;5065925;28;40761;-43
2023/06/18 03:52:52;;;;;;;7.70;6.45;;;;;;;;;;5066779;28;41795;-42
2023/06/18 03:55:20;;;;;;;6.38;5.78;;;;;;;;;;5064054;28;44660;-42
2023/06/18 03:57:49;;;;;;;7.60;6.13;;;;;;;;;;5067083;28;39036;-43
2023/06/18 04:00:19;;;;;;;6.72;6.03;;;;;;;;;;5063760;28;42986;-43
2023/06/18 04:02:48;;;;;;;6.85;6.15;;;;;;;;;;5065143;28;39919;-43
2023/06/18 04:05:20;;;;;;;6.95;5.93;;;;;;;;;;5065433;28;42244;-43
2023/06/18 04:07:48;;;;;;;6.35;5.75;;;;;;;;;;5068784;28;43500;-43
2023/06/18 04:10:17;;;;;;;5.95;5.35;;;;;;;;;;5065582;28;40273;-43
2023/06/18 04:12:45;;;;;;;6.60;5.90;;;;;;;;;;5068434;28;42425;-43
2023/06/18 04:15:13;;;;;;;6.18;5.63;;;;;;;;;;5068616;28;43163;-43
2023/06/18 04:17:43;;;;;;;9.00;6.28;;;;;;;;;;5065634;28;41991;-43
2023/06/18 04:20:14;;;;;;;6.63;5.90;;;;;;;;;;5067621;28;41500;-42
2023/06/18 04:22:43;;;;;;;6.28;5.45;;;;;;;;;;5066570;28;39292;-42
2023/06/18 04:25:13;;;;;;;6.63;5.97;;;;;;;;;;5065883;28;41121;-42
2023/06/18 04:27:43;;;;;;;8.23;6.20;;;;;;;;;;5066810;28;42114;-43
2023/06/18 04:30:11;;;;;;;7.47;6.13;;;;;;;;;;5065951;28;38824;-42
2023/06/18 04:32:39;;;;;;;6.45;5.85;;;;;;;;;;5064701;28;41516;-43
2023/06/18 04:35:09;;;;;;;6.93;6.25;;;;;;;;;;5066589;28;41810;-43
2023/06/18 04:37:37;;;;;;;7.65;5.85;;;;;;;;;;5065937;28;41091;-43
2023/06/18 04:40:06;;;;;;;7.20;6.18;;;;;;;;;;5065755;28;41394;-43
2023/06/18 04:42:35;;;;;;;9.05;6.40;;;;;;;;;;5065818;28;42655;-42
2023/06/18 04:45:04;;;;;;;7.65;6.88;;;;;;;;;;5066172;28;42825;-43
2023/06/18 04:47:33;;;;;;;7.35;6.45;;;;;;;;;;5064458;28;44713;-43
2023/06/18 04:50:02;;;;;;;7.40;6.65;;;;;;;;;;5065388;28;39411;-42
2023/06/18 04:52:33;;;;;;;7.97;6.93;;;;;;;;;;5064543;28;41032;-43
2023/06/18 04:55:01;;;;;;;9.60;8.18;;;;;;;;;;5065157;28;42546;-43
2023/06/18 04:57:29;;;;;;;9.45;7.47;;;;;;;;;;5065479;28;38957;-43
2023/06/18 04:59:58;;;;;;;7.82;7.13;;;;;;;;;;5064585;28;41515;-43
2023/06/18 05:02:26;;;;;;;8.48;6.72;;;;;;;;;;5065034;28;41960;-43
2023/06/18 05:04:54;;;;;;;8.10;7.30;;;;;;;;;;5064909;28;39075;-43
2023/06/18 05:07:22;;;;;;;9.18;7.75;;;;;;;;;;5064238;28;43005;-42
2023/06/18 05:09:52;;;;;;;9.50;7.82;;;;;;;;;;5064805;28;39067;-43
2023/06/18 05:12:20;;;;;;;9.90;8.43;;;;;;;;;;5064307;28;40896;-38
2023/06/18 05:14:48;;;;;;;8.88;7.25;;;;;;;;;;5064021;28;41939;-33
2023/06/18 05:17:16;;;;;;;7.72;6.90;;;;;;;;;;5067143;28;41089;-34
2023/06/18 05:19:45;;;;;;;9.48;7.75;;;;;;;;;;5064906;28;42827;-37
2023/06/18 05:22:14;;;;;;;9.90;7.90;;;;;;;;;;5064379;28;43026;-36
2023/06/18 05:24:42;;;;;;;8.75;7.85;;;;;;;;;;5065009;28;39164;-33
2023/06/18 05:27:12;;;;;;;9.48;7.80;;;;;;;;;;5065930;28;44350;-36
2023/06/18 05:29:40;;;;;;;9.13;8.20;;;;;;;;;;5063603;28;38977;-32
2023/06/18 05:32:09;;;;;;;8.73;7.57;;;;;;;;;;5064388;28;41194;-38
2023/06/18 05:34:39;;;;;;;9.27;8.20;;;;;;;;;;5062763;28;42781;-37
2023/06/18 05:37:07;;;;;;;9.93;7.93;;;;;;;;;;5080832;28;40139;-38
2023/06/18 05:39:36;;;;;;;9.95;7.85;;;;;;;;;;5061666;28;42578;-36
2023/06/18 05:42:04;;;;;;;10.07;8.50;;;;;;;;;;5063058;28;43035;-37
2023/06/18 05:44:33;;;;;;;8.93;7.63;;;;;;;;;;5062653;28;39569;-36
2023/06/18 05:47:01;;;;;;;11.38;8.38;;;;;;;;;;5065206;28;41997;-37
2023/06/18 05:49:30;;;;;;;8.70;7.80;;;;;;;;;;5062661;28;39263;-32
2023/06/18 05:52:00;;;;;;;9.23;8.15;;;;;;;;;;5079699;28;41276;-34
2023/06/18 05:54:28;;;;;;;9.68;8.63;;;;;;;;;;5065018;28;43399;-36
2023/06/18 05:56:56;;;;;;;13.93;8.15;;;;;;;;;;5063715;28;40514;-36
2023/06/18 05:59:24;;;;;;;8.73;7.82;;;;;;;;;;5063428;28;41755;-35
2023/06/18 06:02:01;;;;;;;9.20;8.13;;;;;;;;;;5062409;28;41827;-35
2023/06/18 06:04:30;;;;;;;11.50;8.43;;;;;;;;;;5065639;28;40776;-33
2023/06/18 06:06:57;;;;;;;9.95;8.35;;;;;;;;;;5063218;28;42422;-34
2023/06/18 06:09:25;;;;;;;11.38;9.10;;;;;;;;;;5063454;28;41837;-34
2023/06/18 06:11:55;;;;;;;11.07;8.60;;;;;;;;;;5064370;28;41974;-35
2023/06/18 06:14:23;;;;;;;9.65;8.63;;;;;;;;;;5063466;28;43730;-35
2023/06/18 06:16:57;;;;;;;9.40;8.40;;;;;;;;;;5062166;28;40131;-38
2023/06/18 06:19:26;;;;;;;10.35;8.77;;;;;;;;;;5063340;28;41051;-36
2023/06/18 06:21:54;;;;;;;9.98;8.60;;;;;;;;;;5065441;28;43596;-34
2023/06/18 06:24:23;;;;;;;10.25;8.85;;;;;;;;;;5062631;28;38905;-34
2023/06/18 06:26:51;;;;;;;10.27;8.93;;;;;;;;;;5063345;28;41964;-36
2023/06/18 06:29:19;;;;;;;14.10;8.93;;;;;;;;;;5062452;28;42814;-36
2023/06/18 06:31:48;;;;;;;10.45;9.27;;;;;;;;;;5063472;28;38449;-33
2023/06/18 06:34:16;;;;;;;11.07;8.98;;;;;;;;;;5064614;28;44349;-44
2023/06/18 06:36:47;;;;;;;11.23;9.35;;;;;;;;;;5063671;28;38746;-44
2023/06/18 06:39:16;;;;;;;11.55;8.77;;;;;;;;;;5062751;28;41140;-44
2023/06/18 06:41:44;;;;;;;12.07;9.13;;;;;;;;;;5063099;28;41892;-44
2023/06/18 06:44:13;;;;;;;9.88;8.88;;;;;;;;;;5062244;28;38941;-44
2023/06/18 06:46:52;;;;;;;10.30;9.30;;;;;;;;;;5064265;28;42903;-44
2023/06/18 06:49:33;;;;;;;10.55;9.45;;;;;;;;;;5062443;28;43662;-44
2023/06/18 06:52:28;;;;;;;10.88;9.85;;;;;;;;;;5062046;28;39060;-44
2023/06/18 06:54:56;;;;;;;12.43;9.40;;;;;;;;;;5063758;28;41429;-44
2023/06/18 06:57:24;;;;;;;11.57;9.07;;;;;;;;;;5062092;28;40054;-44
2023/06/18 06:59:52;;;;;;;10.32;9.18;;;;;;;;;;5063282;28;41319;-44
2023/06/18 07:02:20;;;;;;;10.70;9.52;;;;;;;;;;5062240;28;41744;-44
2023/06/18 07:04:48;;;;;;;10.38;9.38;;;;;;;;;;5063940;28;40567;-44
2023/06/18 07:07:16;;;;;;;10.90;9.45;;;;;;;;;;5063961;28;42114;-44
2023/06/18 07:09:46;;;;;;;11.00;9.60;;;;;;;;;;5065516;28;43243;-44
2023/06/18 07:12:13;;;;;;;11.68;9.93;;;;;;;;;;5065395;28;41299;-44
2023/06/18 07:14:41;;;;;;;10.57;9.50;;;;;;;;;;5063487;28;42548;-44
2023/06/18 07:17:09;;;;;;;10.32;9.30;;;;;;;;;;5064262;28;32375;-44
2023/06/18 07:19:37;;;;;;;12.13;10.20;;;;;;;;;;5063402;28;43586;-43
2023/06/18 07:22:05;;;;;;;10.25;9.25;;;;;;;;;;5065025;28;43508;-44
2023/06/18 07:24:33;;;;;;;12.65;9.98;;;;;;;;;;5064830;28;40853;-44
2023/06/18 07:27:03;;;;;;;11.75;10.23;;;;;;;;;;5065531;28;42336;-44
2023/06/18 07:29:31;;;;;;;12.57;9.88;;;;;;;;;;5064534;28;43514;-44
2023/06/18 07:31:59;;;;;;;11.60;9.52;;;;;;;;;;5064916;28;40973;-44
2023/06/18 07:34:27;;;;;;;14.85;9.90;;;;;;;;;;5063733;28;42451;-44
2023/06/18 07:36:56;;;;;;;11.48;10.13;;;;;;;;;;5065191;28;44273;-44
2023/06/18 07:39:24;;;;;;;11.02;9.88;;;;;;;;;;5063538;28;41945;-44
2023/06/18 07:41:52;;;;;;;12.13;10.52;;;;;;;;;;5061225;28;42064;-44
2023/06/18 07:44:21;;;;;;;13.02;10.07;;;;;;;;;;5061582;28;41137;-44
2023/06/18 07:46:50;;;;;;;11.73;10.55;;;;;;;;;;5064425;28;42576;-44
2023/06/18 07:49:20;;;;;;;11.07;9.88;;;;;;;;;;5062855;28;43885;-44
2023/06/18 07:51:48;;;;;;;12.95;10.20;;;;;;;;;;5065754;28;39826;-44
2023/06/18 07:54:16;;;;;;;14.98;9.93;;;;;;;;;;5064351;28;43661;-44
2023/06/18 07:56:44;;;;;;;11.40;9.68;;;;;;;;;;5064760;28;43426;-44
2023/06/18 07:59:12;;;;;;;11.55;10.38;;;;;;;;;;5064337;28;40858;-44
2023/06/18 08:01:42;;;;;;;11.32;10.13;;;;;;;;;;5062849;28;42864;-45
2023/06/18 08:04:10;;;;;;;11.15;10.00;;;;;;;;;;5065212;28;40439;-44
2023/06/18 08:06:38;;;;;;;12.02;10.68;;;;;;;;;;5066182;28;43403;-44
2023/06/18 08:09:05;;;;;;;10.98;9.93;;;;;;;;;;5067321;28;43101;-44
2023/06/18 08:11:33;;;;;;;12.18;9.73;;;;;;;;;;5067079;28;40527;-44
2023/06/18 08:14:02;;;;;;;11.18;9.93;;;;;;;;;;5066988;28;42695;-44
2023/06/18 08:16:30;;;;;;;12.73;10.15;;;;;;;;;;5065007;28;43288;-44
2023/06/18 08:18:59;;;;;;;11.90;10.60;;;;;;;;;;5067615;28;39729;-44
2023/06/18 08:21:27;;;;;;;11.80;10.45;;;;;;;;;;5066907;28;43084;-44
2023/06/18 08:23:55;;;;;;;11.25;10.13;;;;;;;;;;5066557;28;40495;-44
2023/06/18 08:26:23;;;;;;;11.15;10.02;;;;;;;;;;5067497;28;43131;-44
2023/06/18 08:28:51;;;;;;;12.15;10.15;;;;;;;;;;5067996;28;43300;-44
2023/06/18 08:31:20;;;;;;;16.10;9.88;;;;;;;;;;5066244;28;40888;-44
2023/06/18 08:33:48;;;;;;;14.30;10.32;;;;;;;;;;5067833;28;43604;-44
2023/06/18 08:36:18;;;;;;;10.90;9.80;;;;;;;;;;5067083;28;43398;-44
2023/06/18 08:38:46;;;;;;;11.35;10.20;;;;;;;;;;5067032;28;40754;-44
2023/06/18 08:41:14;;;;;;;10.68;9.27;;;;;;;;;;5066864;28;42329;-44
2023/06/18 08:43:42;;;;;;;12.48;9.85;;;;;;;;;;5063466;28;43711;-44
2023/06/18 08:46:11;;;;;;;12.20;10.00;;;;;;;;;;5065108;28;43072;-44
2023/06/18 08:48:39;;;;;;;13.20;10.27;;;;;;;;;;5064716;28;44005;-44
2023/06/18 08:51:09;;;;;;;12.00;10.00;;;;;;;;;;5065072;28;41732;-44
2023/06/18 08:53:41;;;;;;;11.93;9.75;;;;;;;;;;5065069;28;42415;-44
2023/06/18 08:56:09;;;;;;;11.18;9.98;;;;;;;;;;5064705;28;44371;-44
2023/06/18 08:58:40;;;;;;;11.70;10.50;;;;;;;;;;5063186;28;38952;-44
2023/06/18 09:01:08;;;;;;;10.45;9.45;;;;;;;;;;5064401;28;43475;-44
2023/06/18 09:03:37;;;;;;;9.98;8.98;;;;;;;;;;5066383;28;43548;-44
2023/06/18 09:06:05;;;;;;;11.20;10.05;;;;;;;;;;5066591;28;40828;-44
2023/06/18 09:08:33;;;;;;;10.27;9.15;;;;;;;;;;5066394;28;43139;-44
2023/06/18 09:11:02;;;;;;;10.52;9.45;;;;;;;;;;5067046;28;40495;-44
2023/06/18 09:13:30;;;;;;;10.52;9.40;;;;;;;;;;5065366;28;42698;-43
2023/06/18 09:15:58;;;;;;;10.23;9.30;;;;;;;;;;5066400;28;43466;-44
2023/06/18 09:18:26;;;;;;;10.88;9.50;;;;;;;;;;5066473;28;41390;-44
2023/06/18 09:20:54;;;;;;;10.27;9.27;;;;;;;;;;5066321;28;42153;-44
2023/06/18 09:23:22;;;;;;;9.93;8.85;;;;;;;;;;5066689;28;44122;-44
2023/06/18 09:25:51;;;;;;;10.38;8.90;;;;;;;;;;5065372;28;39878;-39
2023/06/18 09:28:21;;;;;;;10.85;9.27;;;;;;;;;;5065801;28;43755;-40
2023/06/18 09:30:49;;;;;;;9.98;8.98;;;;;;;;;;5052234;28;40622;-39
2023/06/18 09:33:17;;;;;;;10.32;9.23;;;;;;;;;;5065933;28;42289;-37
2023/06/18 09:35:45;;;;;;;9.25;8.35;;;;;;;;;;5066170;28;43749;-40
2023/06/18 09:38:13;;;;;;;9.85;8.95;;;;;;;;;;5066687;28;40122;-38
2023/06/18 09:40:41;;;;;;;10.68;9.40;;;;;;;;;;5065799;28;43478;-44
2023/06/18 09:43:10;;;;;;;10.18;9.18;;;;;;;;;;5066032;28;44734;-43
2023/06/18 09:45:39;;;;;;;10.23;9.23;;;;;;;;;;5062779;28;40450;-44
2023/06/18 09:48:07;;;;;;;11.40;9.45;;;;;;;;;;5066130;28;43772;-44
2023/06/18 09:50:36;;;;;;;11.10;9.40;;;;;;;;;;5065363;28;41477;-44
2023/06/18 09:53:04;;;;;;;10.40;9.05;;;;;;;;;;5066143;28;42832;-44
2023/06/18 09:55:32;;;;;;;10.00;9.00;;;;;;;;;;5074000;28;41779;-44
2023/06/18 09:58:01;;;;;;;10.80;9.70;;;;;;;;;;5064367;28;39292;-44
2023/06/18 10:00:30;;;;;;;10.07;9.10;;;;;;;;;;5065522;28;42650;-44
2023/06/18 10:03:06;;;;;;;9.25;7.95;;;;;;;;;;5065208;28;43967;-44
2023/06/18 10:05:34;;;;;;;11.60;9.05;;;;;;;;;;5065327;28;41079;-43
2023/06/18 10:08:03;;;;;;;10.05;9.05;;;;;;;;;;5064353;28;42005;-44
2023/06/18 10:10:34;;;;;;;11.07;9.77;;;;;;;;;;5065076;28;43487;-44
2023/06/18 10:13:04;;;;;;;9.88;8.98;;;;;;;;;;5065904;28;43869;-44
2023/06/18 10:15:32;;;;;;;9.32;8.43;;;;;;;;;;5064449;28;43024;-44
2023/06/18 10:18:00;;;;;;;9.30;8.40;;;;;;;;;;5066020;28;40646;-44
2023/06/18 10:20:29;;;;;;;10.73;9.27;;;;;;;;;;5065208;28;42347;-44
2023/06/18 10:22:58;;;;;;;10.05;8.70;;;;;;;;;;5065002;28;43626;-44
2023/06/18 10:25:26;;;;;;;9.30;8.48;;;;;;;;;;5064941;28;40259;-44
2023/06/18 10:27:55;;;;;;;9.05;8.20;;;;;;;;;;5064953;28;44092;-44
2023/06/18 10:30:23;;;;;;;9.65;8.68;;;;;;;;;;5064457;28;43791;-44
2023/06/18 10:32:51;;;;;;;10.18;9.25;;;;;;;;;;5066560;28;41361;-44
2023/06/18 10:35:19;;;;;;;10.63;8.93;;;;;;;;;;5064592;28;43657;-44
2023/06/18 10:37:48;;;;;;;9.48;8.57;;;;;;;;;;5065632;28;40586;-44
2023/06/18 10:40:16;;;;;;;9.65;8.75;;;;;;;;;;5065155;28;42816;-44
2023/06/18 10:42:47;;;;;;;9.15;8.25;;;;;;;;;;5065244;28;44711;-43
2023/06/18 10:45:16;;;;;;;9.05;8.15;;;;;;;;;;5064506;28;40303;-44
2023/06/18 10:47:45;;;;;;;9.48;8.45;;;;;;;;;;5067160;28;20342;-44
2023/06/18 10:50:14;;;;;;;9.48;8.45;;;;;;;;;;5065753;28;43537;-44
2023/06/18 10:52:42;;;;;;;10.95;8.30;;;;;;;;;;5063539;28;41291;-44
2023/06/18 10:55:12;;;;;;;9.50;8.60;;;;;;;;;;5064110;28;42529;-44
2023/06/18 10:57:41;;;;;;;9.70;8.30;;;;;;;;;;5063203;28;40349;-44
2023/06/18 11:00:18;;;;;;;9.10;8.25;;;;;;;;;;5064511;28;42910;-44
2023/06/18 11:02:47;;;;;;;10.18;8.68;;;;;;;;;;5060413;28;44404;-44
2023/06/18 11:05:16;;;;;;;9.02;8.18;;;;;;;;;;5064460;28;42170;-44
2023/06/18 11:07:44;;;;;;;9.43;8.02;;;;;;;;;;5064309;28;42607;-44
2023/06/18 11:10:13;;;;;;;11.93;8.40;;;;;;;;;;5065207;28;43136;-44
2023/06/18 11:12:44;;;;;;;10.55;8.13;;;;;;;;;;5062904;28;39816;-44
2023/06/18 11:15:13;;;;;;;9.43;8.52;;;;;;;;;;5064985;28;43254;-43
2023/06/18 11:17:41;;;;;;;9.05;8.15;;;;;;;;;;5064270;28;43960;-43
2023/06/18 11:20:09;;;;;;;10.50;8.27;;;;;;;;;;5064720;28;43716;-44
2023/06/18 11:22:37;;;;;;;10.27;8.27;;;;;;;;;;5064450;28;44623;-45
2023/06/18 11:25:06;;;;;;;15.40;8.23;;;;;;;;;;5065323;28;40884;-44
2023/06/18 11:27:36;;;;;;;10.05;8.45;;;;;;;;;;5063857;28;42002;-44
2023/06/18 11:30:04;;;;;;;9.00;8.10;;;;;;;;;;5064994;28;43720;-44
2023/06/18 11:32:32;;;;;;;8.55;7.78;;;;;;;;;;5064312;28;40495;-44
2023/06/18 11:35:00;;;;;;;10.10;8.45;;;;;;;;;;5061514;28;42359;-45
2023/06/18 11:37:28;;;;;;;8.57;7.78;;;;;;;;;;5062963;28;42991;-45
2023/06/18 11:39:56;;;;;;;10.80;8.77;;;;;;;;;;5062604;28;42013;-45
2023/06/18 11:42:25;;;;;;;8.85;7.95;;;;;;;;;;5064377;28;43101;-45
2023/06/18 11:44:56;;;;;;;11.82;7.97;;;;;;;;;;5067707;28;41195;-46
2023/06/18 11:47:23;;;;;;;9.00;8.13;;;;;;;;;;5065733;28;44034;-45
2023/06/18 11:49:52;;;;;;;10.30;7.95;;;;;;;;;;5066669;28;41886;-45
2023/06/18 11:52:20;;;;;;;8.20;7.20;;;;;;;;;;5063260;28;41815;-44
2023/06/18 11:54:48;;;;;;;13.90;8.23;;;;;;;;;;5066669;28;43598;-45
2023/06/18 11:57:17;;;;;;;12.05;8.35;;;;;;;;;;5067057;28;43335;-45
2023/06/18 11:59:46;;;;;;;8.95;8.07;;;;;;;;;;5067412;28;40635;-45
2023/06/18 12:02:15;;;;;;;8.85;7.88;;;;;;;;;;5065479;28;41670;-45
2023/06/18 12:04:44;;;;;;;8.48;7.68;;;;;;;;;;5068099;28;40228;-45
2023/06/18 12:07:12;;;;;;;8.30;7.50;;;;;;;;;;5067458;28;43422;-45
2023/06/18 12:09:40;;;;;;;8.35;7.55;;;;;;;;;;5065321;28;43405;-45
2023/06/18 12:12:12;;;;;;;9.43;7.72;;;;;;;;;;5068162;28;42182;-45
2023/06/18 12:14:42;;;;;;;11.20;7.90;;;;;;;;;;5064154;28;42808;-45
2023/06/18 12:17:12;;;;;;;8.63;7.45;;;;;;;;;;5066982;28;43828;-38
2023/06/18 12:19:41;;;;;;;9.55;7.82;;;;;;;;;;5066930;28;40040;-39
2023/06/18 12:22:09;;;;;;;8.60;7.70;;;;;;;;;;5067243;28;42617;-39
2023/06/18 12:24:38;;;;;;;8.77;7.88;;;;;;;;;;5067656;28;41561;-38
2023/06/18 12:27:07;;;;;;;8.82;7.65;;;;;;;;;;5067231;28;42498;-40
2023/06/18 12:29:34;;;;;;;8.85;7.75;;;;;;;;;;5066178;28;44585;-37
2023/06/18 12:32:08;;;;;;;7.65;6.80;;;;;;;;;;5068072;28;41506;-38
2023/06/18 12:34:36;;;;;;;8.05;7.25;;;;;;;;;;5064375;28;42630;-34
2023/06/18 12:37:05;;;;;;;8.18;7.32;;;;;;;;;;5067369;28;43950;-34
2023/06/18 12:39:34;;;;;;;9.43;7.22;;;;;;;;;;5067359;28;40579;-38
2023/06/18 12:42:08;;;;;;;9.75;7.63;;;;;;;;;;5066534;28;41493;-38
2023/06/18 12:44:36;;;;;;;7.75;6.85;;;;;;;;;;5066443;28;43600;-37
2023/06/18 12:47:04;;;;;;;8.20;7.40;;;;;;;;;;5066666;28;42614;-38
2023/06/18 12:49:37;;;;;;;8.20;7.40;;;;;;;;;;5065903;28;43212;-38
2023/06/18 12:52:16;;;;;;;7.93;7.13;;;;;;;;;;5064241;28;40470;-36
2023/06/18 12:54:44;;;;;;;8.20;7.50;;;;;;;;;;5064208;28;43199;-40
2023/06/18 12:57:13;;;;;;;7.93;7.15;;;;;;;;;;5066547;28;44425;-37
2023/06/18 12:59:48;;;;;;;8.23;7.38;;;;;;;;;;5066475;28;41083;-39
2023/06/18 13:02:16;;;;;;;7.50;6.80;;;;;;;;;;5064929;28;42546;-35
2023/06/18 13:04:45;;;;;;;8.68;7.57;;;;;;;;;;5067038;28;43614;-34
2023/06/18 13:07:13;;;;;;;8.13;7.40;;;;;;;;;;5067967;28;39914;-36
2023/06/18 13:09:42;;;;;;;8.20;7.40;;;;;;;;;;5067424;28;44388;-37
2023/06/18 13:12:11;;;;;;;7.40;6.70;;;;;;;;;;5066653;28;40985;-39
2023/06/18 13:14:39;;;;;;;8.38;7.57;;;;;;;;;;5066807;28;42665;-36
2023/06/18 13:17:07;;;;;;;7.53;6.75;;;;;;;;;;5067170;28;43476;-40
2023/06/18 13:19:35;;;;;;;7.78;6.93;;;;;;;;;;5066017;28;40957;-36
2023/06/18 13:22:23;;;;;;;8.82;7.15;;;;;;;;;;5064048;28;42668;-35
2023/06/18 13:24:56;;;;;;;8.02;7.22;;;;;;;;;;5066816;28;43889;-39
2023/06/18 13:27:24;;;;;;;8.55;7.25;;;;;;;;;;5064546;28;40614;-38
2023/06/18 13:29:52;;;;;;;9.63;7.57;;;;;;;;;;5067050;28;43097;-33
2023/06/18 13:32:20;;;;;;;7.95;7.18;;;;;;;;;;5065137;28;41439;-37
2023/06/18 13:34:49;;;;;;;7.60;6.90;;;;;;;;;;5063408;28;42514;-35
2023/06/18 13:37:16;;;;;;;8.32;7.45;;;;;;;;;;5066107;28;44211;-34
2023/06/18 13:39:45;;;;;;;9.25;7.80;;;;;;;;;;5065623;28;40420;-37
2023/06/18 13:42:15;;;;;;;11.35;7.40;;;;;;;;;;5067054;28;42247;-36
2023/06/18 13:44:44;;;;;;;10.77;7.47;;;;;;;;;;5066286;28;42998;-38
2023/06/18 13:47:12;;;;;;;7.93;7.00;;;;;;;;;;5065703;28;40567;-36
2023/06/18 13:49:40;;;;;;;7.35;6.72;;;;;;;;;;5066793;28;42337;-32
2023/06/18 13:52:08;;;;;;;8.30;7.60;;;;;;;;;;5066891;28;40930;-35
2023/06/18 13:54:36;;;;;;;7.43;6.72;;;;;;;;;;5064097;28;44186;-39
2023/06/18 13:57:04;;;;;;;8.38;7.57;;;;;;;;;;5066575;28;44408;-33
2023/06/18 13:59:33;;;;;;;7.65;6.95;;;;;;;;;;5065696;28;41371;-40
2023/06/18 14:02:02;;;;;;;7.50;6.80;;;;;;;;;;5064886;28;42336;-36
2023/06/18 14:04:34;;;;;;;7.72;7.03;;;;;;;;;;5065988;28;43885;-38
2023/06/18 14:07:03;;;;;;;7.68;7.00;;;;;;;;;;5063391;28;40514;-36
2023/06/18 14:09:31;;;;;;;9.25;7.07;;;;;;;;;;5064770;28;42505;-34
2023/06/18 14:11:59;;;;;;;7.53;6.82;;;;;;;;;;5066352;28;44023;-36
2023/06/18 14:14:27;;;;;;;8.27;7.25;;;;;;;;;;5065264;28;43749;-37
2023/06/18 14:16:56;;;;;;;7.78;7.07;;;;;;;;;;5066212;28;43149;-35
2023/06/18 14:19:24;;;;;;;7.35;6.65;;;;;;;;;;5065579;28;41374;-37
2023/06/18 14:21:52;;;;;;;7.53;6.82;;;;;;;;;;5065400;28;42768;-36
2023/06/18 14:24:20;;;;;;;7.43;6.43;;;;;;;;;;5065496;28;43840;-39
2023/06/18 14:26:48;;;;;;;8.18;7.38;;;;;;;;;;5065915;28;40550;-37
2023/06/18 14:29:16;;;;;;;7.57;6.85;;;;;;;;;;5065046;28;42871;-38
2023/06/18 14:31:44;;;;;;;7.40;6.63;;;;;;;;;;5065505;28;43966;-38
2023/06/18 14:34:14;;;;;;;7.75;6.68;;;;;;;;;;5066509;28;39938;-34
2023/06/18 14:36:42;;;;;;;7.68;6.90;;;;;;;;;;5064257;28;44374;-36
2023/06/18 14:39:10;;;;;;;7.30;6.65;;;;;;;;;;5065190;28;41546;-37
2023/06/18 14:41:38;;;;;;;7.70;6.88;;;;;;;;;;5065109;28;42869;-37
2023/06/18 14:44:06;;;;;;;7.55;6.85;;;;;;;;;;5064499;28;43252;-35
2023/06/18 14:46:34;;;;;;;7.68;6.82;;;;;;;;;;5064798;28;39844;-37
2023/06/18 14:49:02;;;;;;;7.68;6.65;;;;;;;;;;5060301;28;42478;-37